Coal Creek, Washington
Current Conditions -  °F | °C
As of 11:53 PM on Thursday 30 Oct 2014 (Local Time) from KRNT Reporting Station
Light Rain Light Rain  
Wind Chill: 55°   Ceiling: 4300
Heat Index: 55°   Visibility: 6mi
Dew Point: 53°   Wind: 5mph
Humidity: 93%   Direction: 150°SSE
Pressure: 29.78"   Gusts: NA
Location:  47.4953°N, 121.984°W
Report Text: KRNT 310653Z AUTO 15004KT 6SM -RA BR SCT015 OVC043 13/12 A2978 RMK AO2 SLP090 P0008 T01280117
Loading
Personal Weather Stations






























Interactive Weather Map
Tropical Storm Tracking
New forecast layout! Learn more

10-Day Weather Forecast

Advertisements
Track Severe Weather on mobile